Lady Ann Magee — 9HA2775 — position and weather

sailwx.info

Track history (hours):
 
Tides and Currents Weather Stations Pressure Air Temp Water Temp Dewpoint Dewpoint Depression Visibility Wind Speed Wind Dir Waves Ship Positions

Lady Ann Magee

Last reported at 2014-Aug-30 20:17 UTC. Time now 2014-Aug-31 04:34 UTC.
Position N 43°44' E 007°25'.

Length 50 m; draft 3.4 m.

Type: Ship. MMSI: 215660000.

Date/timePositionNaut miles runAvg speedWind from/ knotsBaromVisibWave heightAir tempDewpointWater temp
2014-Aug-30 20:17N 43°44' E 007°25'0 0.0
2014-Aug-30 16:17N 43°44' E 007°25'0 0.0
2014-Aug-30 10:11N 43°44' E 007°25'  
2014-Aug-26 11:26N 43°44' E 007°25'1 0.7
2014-Aug-26 10:32N 43°45' E 007°26'0 0.0
2014-Aug-26 09:33N 43°45' E 007°26'4 4.3
2014-Aug-26 08:30N 43°43' E 007°21'0 0.0
2014-Aug-26 07:06N 43°43' E 007°21'0 0.0
2014-Aug-26 06:12N 43°43' E 007°21'0 0.0
2014-Aug-26 05:24N 43°43' E 007°21'0 0.0
2014-Aug-26 04:30N 43°43' E 007°21'0 0.0
2014-Aug-26 03:30N 43°43' E 007°21'6513.2
2014-Aug-25 22:33N 44°06' E 008°45'1413.9
2014-Aug-25 21:33N 44°13' E 009°02'10 7.6
2014-Aug-25 20:18N 44°18' E 009°13'0 0.0
2014-Aug-25 16:33N 44°18' E 009°13'0 0.0
2014-Aug-25 15:03N 44°18' E 009°13'0 0.0
2014-Aug-25 14:30N 44°18' E 009°13'0 0.0
2014-Aug-25 13:30N 44°18' E 009°13'0 0.0
2014-Aug-25 12:33N 44°18' E 009°13'0 0.0
2014-Aug-25 11:30N 44°18' E 009°13'0 0.0
2014-Aug-25 09:24N 44°18' E 009°13'0 0.0
2014-Aug-25 08:30N 44°18' E 009°13'0 0.0
2014-Aug-25 07:12N 44°18' E 009°13'0 0.0
2014-Aug-25 05:33N 44°18' E 009°13'8 8.5
2014-Aug-25 04:33N 44°13' E 009°04'9 9.3
2014-Aug-25 03:33N 44°08' E 008°53'1110.3
2014-Aug-25 02:31N 44°03' E 008°40'57 9.3
2014-Aug-24 20:28N 43°44' E 007°26'0 0.0
2014-Aug-22 16:30N 43°44' E 007°25'0 0.0
2014-Aug-22 15:06N 43°44' E 007°25'0 0.0
2014-Aug-22 14:30N 43°44' E 007°25'  
Track history (hours):
 
Tides and Currents Weather Stations Pressure Air Temp Water Temp Dewpoint Dewpoint Depression Visibility Wind Speed Wind Dir Waves Ship Positions

Lady Ann Magee

Last reported at 2014-Aug-30 20:17 UTC. Time now 2014-Aug-31 04:34 UTC.
Position N 43°44' E 007°25'.

Length 50 m; draft 3.4 m.

Type: Ship. MMSI: 215660000.

Date/timePositionNaut miles runAvg speedWind from/ knotsBaromVisibWave heightAir tempDewpointWater temp
2014-Aug-30 20:17N 43°44' E 007°25'0 0.0
2014-Aug-30 16:17N 43°44' E 007°25'0 0.0
2014-Aug-30 10:11N 43°44' E 007°25'  
2014-Aug-26 11:26N 43°44' E 007°25'1 0.7
2014-Aug-26 10:32N 43°45' E 007°26'0 0.0
2014-Aug-26 09:33N 43°45' E 007°26'4 4.3
2014-Aug-26 08:30N 43°43' E 007°21'0 0.0
2014-Aug-26 07:06N 43°43' E 007°21'0 0.0
2014-Aug-26 06:12N 43°43' E 007°21'0 0.0
2014-Aug-26 05:24N 43°43' E 007°21'0 0.0
2014-Aug-26 04:30N 43°43' E 007°21'0 0.0
2014-Aug-26 03:30N 43°43' E 007°21'6513.2
2014-Aug-25 22:33N 44°06' E 008°45'1413.9
2014-Aug-25 21:33N 44°13' E 009°02'10 7.6
2014-Aug-25 20:18N 44°18' E 009°13'0 0.0
2014-Aug-25 16:33N 44°18' E 009°13'0 0.0
2014-Aug-25 15:03N 44°18' E 009°13'0 0.0
2014-Aug-25 14:30N 44°18' E 009°13'0 0.0
2014-Aug-25 13:30N 44°18' E 009°13'0 0.0
2014-Aug-25 12:33N 44°18' E 009°13'0 0.0
2014-Aug-25 11:30N 44°18' E 009°13'0 0.0
2014-Aug-25 09:24N 44°18' E 009°13'0 0.0
2014-Aug-25 08:30N 44°18' E 009°13'0 0.0
2014-Aug-25 07:12N 44°18' E 009°13'0 0.0
2014-Aug-25 05:33N 44°18' E 009°13'8 8.5
2014-Aug-25 04:33N 44°13' E 009°04'9 9.3
2014-Aug-25 03:33N 44°08' E 008°53'1110.3
2014-Aug-25 02:31N 44°03' E 008°40'57 9.3
2014-Aug-24 20:28N 43°44' E 007°26'0 0.0
2014-Aug-22 16:30N 43°44' E 007°25'0 0.0
2014-Aug-22 15:06N 43°44' E 007°25'0 0.0
2014-Aug-22 14:30N 43°44' E 007°25'  

Dump ship's entire track history